Time;durP1;ratioP1;P1;durP2;ratioP2;P2;SDS_P1;SDS_P2;PMS_P1;PMS_P2;Temp;Humidity;BMP_temperature;BMP_pressure;BME280_temperature;BME280_humidity;BME280_pressure;Samples;Min_cycle;Max_cycle;Signal;HPM_P1;HPM_P2
2023/08/22 00:00:14;;;;;;;4.80;2.28;;;25.50;84.50;;;;;;5047986;28;20059;-67
2023/08/22 00:02:40;;;;;;;4.78;2.15;;;25.60;84.80;;;;;;5040162;28;20048;-68
2023/08/22 00:05:06;;;;;;;6.05;2.40;;;25.50;84.60;;;;;;5043600;28;20048;-70
2023/08/22 00:07:32;;;;;;;4.80;2.42;;;25.40;84.10;;;;;;5067843;28;20102;-63
2023/08/22 00:09:57;;;;;;;4.53;1.90;;;25.30;84.40;;;;;;5055885;28;20037;-67
2023/08/22 00:12:23;;;;;;;4.57;2.38;;;25.70;84.70;;;;;;5055310;28;20051;-65
2023/08/22 00:14:50;;;;;;;5.03;2.20;;;25.50;84.60;;;;;;5052614;28;20040;-64
2023/08/22 00:17:16;;;;;;;5.63;2.15;;;25.50;84.60;;;;;;5052122;28;20056;-65
2023/08/22 00:19:42;;;;;;;4.68;2.30;;;25.30;84.70;;;;;;5046797;28;20055;-64
2023/08/22 00:22:08;;;;;;;4.55;2.30;;;25.70;84.80;;;;;;5057498;28;20057;-64
2023/08/22 00:24:35;;;;;;;4.65;2.50;;;25.50;84.70;;;;;;5056910;28;20055;-63
2023/08/22 00:27:01;;;;;;;5.05;2.33;;;25.50;84.70;;;;;;5065397;28;20044;-64
2023/08/22 00:29:27;;;;;;;5.00;2.67;;;25.60;84.70;;;;;;5052987;28;20364;-66
2023/08/22 00:31:53;;;;;;;4.55;2.47;;;25.40;84.70;;;;;;5043108;28;20537;-68
2023/08/22 00:34:18;;;;;;;6.47;2.85;;;25.50;84.60;;;;;;5059795;28;20052;-62
2023/08/22 00:36:44;;;;;;;5.43;2.10;;;25.40;84.30;;;;;;5064786;28;20037;-65
2023/08/22 00:39:10;;;;;;;6.70;2.35;;;25.40;88.20;;;;;;5044768;28;20739;-63
2023/08/22 00:41:36;;;;;;;6.60;2.63;;;25.80;84.90;;;;;;5057135;28;20052;-65
2023/08/22 00:44:02;;;;;;;4.40;2.33;;;25.40;84.60;;;;;;5072266;28;20120;-65
2023/08/22 00:46:28;;;;;;;4.93;2.25;;;25.40;84.60;;;;;;5051967;28;20048;-63
2023/08/22 00:48:54;;;;;;;4.38;2.33;;;25.80;85.20;;;;;;5054605;28;20446;-65
2023/08/22 00:51:19;;;;;;;4.70;2.28;;;25.70;84.90;;;;;;5063964;28;20131;-62
2023/08/22 00:53:45;;;;;;;4.65;2.55;;;25.50;84.90;;;;;;5054752;28;20403;-64
2023/08/22 00:56:11;;;;;;;6.00;2.47;;;25.50;84.80;;;;;;5047721;28;20052;-64
2023/08/22 00:58:37;;;;;;;5.15;2.35;;;25.70;84.80;;;;;;5072140;28;20052;-66
2023/08/22 01:01:03;;;;;;;5.05;2.28;;;25.40;84.70;;;;;;5056029;28;20048;-74
2023/08/22 01:03:28;;;;;;;4.82;2.30;;;25.20;84.80;;;;;;5066297;28;20060;-70
2023/08/22 01:06:08;;;;;;;5.15;2.38;;;25.30;84.70;;;;;;5034847;28;20535;-73
2023/08/22 01:08:39;;;;;;;4.22;2.05;;;25.60;85.30;;;;;;5037408;28;20117;-68
2023/08/22 01:11:33;;;;;;;5.28;2.40;;;25.60;85.10;;;;;;5041889;28;20513;-73
2023/08/22 01:14:02;;;;;;;4.05;2.08;;;25.50;85.50;;;;;;5036160;28;20044;-67
2023/08/22 01:16:28;;;;;;;5.10;2.60;;;25.70;85.40;;;;;;5041724;28;20049;-74
2023/08/22 01:18:54;;;;;;;5.85;2.33;;;25.40;85.00;;;;;;5061680;28;20052;-69
2023/08/22 01:21:20;;;;;;;4.43;2.53;;;25.40;84.90;;;;;;5036035;28;20052;-65
2023/08/22 01:23:46;;;;;;;5.45;2.42;;;25.50;85.00;;;;;;5049228;28;20036;-62
2023/08/22 01:26:12;;;;;;;5.82;2.60;;;25.60;85.10;;;;;;5045170;28;20048;-64
2023/08/22 01:28:44;;;;;;;4.32;2.45;;;25.10;84.90;;;;;;5030267;28;20040;-73
2023/08/22 01:31:24;;;;;;;5.53;2.55;;;25.70;85.70;;;;;;5024580;28;20057;-66
2023/08/22 01:33:54;;;;;;;5.40;2.70;;;25.30;83.90;;;;;;5039062;28;20412;-70
2023/08/22 01:36:20;;;;;;;6.95;2.88;;;25.20;83.70;;;;;;5043862;28;20057;-68
2023/08/22 01:38:47;;;;;;;5.63;2.80;;;25.70;85.40;;;;;;5064395;28;20048;-67
2023/08/22 01:41:13;;;;;;;4.80;2.55;;;25.50;85.50;;;;;;5036238;28;20053;-74
2023/08/22 01:43:41;;;;;;;5.38;2.83;;;25.30;85.30;;;;;;5056872;28;20479;-70
2023/08/22 01:46:07;;;;;;;5.65;2.47;;;25.40;85.40;;;;;;5054568;28;20076;-71
2023/08/22 01:48:33;;;;;;;5.97;2.38;;;25.30;85.10;;;;;;5063039;28;20174;-71
2023/08/22 01:50:59;;;;;;;5.70;2.70;;;25.30;85.20;;;;;;5039839;28;20044;-71
2023/08/22 01:53:25;;;;;;;4.65;2.47;;;25.40;85.20;;;;;;5053300;28;20043;-70
2023/08/22 01:55:50;;;;;;;4.18;2.20;;;25.50;85.40;;;;;;5065785;28;20529;-71
2023/08/22 01:58:16;;;;;;;6.22;2.97;;;25.20;85.20;;;;;;5055063;28;20036;-67
2023/08/22 02:00:42;;;;;;;6.22;2.63;;;25.50;85.30;;;;;;5059049;28;20040;-65
2023/08/22 02:03:08;;;;;;;6.28;2.78;;;25.50;85.40;;;;;;5066083;28;20498;-67
2023/08/22 02:05:33;;;;;;;5.53;2.70;;;25.20;85.10;;;;;;5065796;28;20045;-67
2023/08/22 02:08:03;;;;;;;5.18;2.72;;;25.10;85.10;;;;;;5053563;28;20098;-73
2023/08/22 02:10:29;;;;;;;6.70;2.85;;;25.30;85.30;;;;;;5061483;28;20120;-65
2023/08/22 02:12:55;;;;;;;6.40;2.80;;;25.40;85.30;;;;;;5056436;28;20123;-66
2023/08/22 02:15:21;;;;;;;6.40;3.22;;;25.50;85.50;;;;;;5056748;28;20060;-67
2023/08/22 02:17:48;;;;;;;4.88;3.20;;;25.20;85.20;;;;;;5054965;28;20043;-70
2023/08/22 02:20:13;;;;;;;6.03;2.97;;;25.40;85.60;;;;;;5058237;28;20053;-72
2023/08/22 02:22:40;;;;;;;5.82;2.92;;;25.50;85.40;;;;;;5057813;28;20138;-67
2023/08/22 02:25:07;;;;;;;5.90;3.10;;;25.20;85.60;;;;;;5056131;28;20055;-71
2023/08/22 02:27:33;;;;;;;6.57;2.80;;;25.40;85.30;;;;;;5066299;28;20121;-72
2023/08/22 02:29:58;;;;;;;5.40;3.25;;;25.40;85.60;;;;;;5042705;28;20541;-68
2023/08/22 02:32:24;;;;;;;4.85;2.78;;;25.10;85.50;;;;;;5068480;28;20115;-68
2023/08/22 02:34:50;;;;;;;5.80;3.05;;;25.20;85.50;;;;;;5068015;28;20056;-68
2023/08/22 02:37:16;;;;;;;5.82;2.80;;;25.30;85.30;;;;;;5060989;28;20055;-72
2023/08/22 02:39:41;;;;;;;4.78;2.60;;;25.10;85.40;;;;;;5060045;28;20467;-71
2023/08/22 02:42:08;;;;;;;6.22;2.85;;;25.20;85.50;;;;;;5065384;28;20045;-77
2023/08/22 02:44:33;;;;;;;6.20;3.00;;;25.20;85.50;;;;;;5036437;28;20071;-70
2023/08/22 02:46:59;;;;;;;6.00;2.65;;;25.40;85.70;;;;;;5042690;28;20076;-74
2023/08/22 02:49:25;;;;;;;5.68;2.92;;;25.20;85.60;;;;;;5056706;28;20060;-70
2023/08/22 02:51:51;;;;;;;4.93;2.92;;;25.20;85.50;;;;;;5060421;28;20206;-66
2023/08/22 02:54:16;;;;;;;4.97;2.60;;;25.20;85.60;;;;;;5066507;28;20055;-73
2023/08/22 02:56:42;;;;;;;7.47;2.60;;;25.30;85.60;;;;;;5070680;28;20048;-66
2023/08/22 02:59:08;;;;;;;3.92;2.22;;;25.30;85.70;;;;;;5060580;28;20083;-65
2023/08/22 03:01:33;;;;;;;4.25;2.30;;;25.20;85.70;;;;;;5055784;28;20487;-72
2023/08/22 03:03:59;;;;;;;5.15;2.72;;;25.10;85.50;;;;;;5065950;28;20478;-69
2023/08/22 03:06:25;;;;;;;4.95;2.72;;;25.30;85.70;;;;;;5069079;28;20040;-70
2023/08/22 03:08:51;;;;;;;5.30;2.17;;;25.20;85.60;;;;;;5044446;28;20067;-70
2023/08/22 03:11:16;;;;;;;5.55;2.85;;;25.10;85.60;;;;;;5057689;28;20044;-67
2023/08/22 03:13:42;;;;;;;5.00;2.25;;;25.20;85.70;;;;;;5066910;28;20402;-64
2023/08/22 03:16:08;;;;;;;5.57;2.67;;;25.30;85.80;;;;;;5063329;28;20114;-70
2023/08/22 03:18:34;;;;;;;3.95;2.33;;;24.90;85.50;;;;;;5047948;28;20174;-66
2023/08/22 03:21:00;;;;;;;5.63;2.30;;;25.10;85.70;;;;;;5054706;28;20128;-70
2023/08/22 03:23:26;;;;;;;3.50;2.40;;;25.10;85.70;;;;;;5043920;28;20059;-67
2023/08/22 03:26:02;;;;;;;4.85;2.40;;;25.10;85.60;;;;;;5062401;28;20041;-69
2023/08/22 03:28:28;;;;;;;4.57;2.33;;;25.00;86.10;;;;;;5036784;28;20041;-64
2023/08/22 03:30:58;;;;;;;5.68;2.88;;;24.90;85.60;;;;;;5048584;28;20037;-69
2023/08/22 03:33:26;;;;;;;5.00;2.53;;;25.10;84.40;;;;;;5071589;28;20076;-65
2023/08/22 03:35:54;;;;;;;4.72;2.40;;;25.00;85.80;;;;;;5057480;28;20049;-65
2023/08/22 03:38:20;;;;;;;5.63;2.35;;;25.30;85.90;;;;;;5063485;28;20041;-67
2023/08/22 03:40:46;;;;;;;4.85;2.20;;;25.20;85.70;;;;;;5063175;28;20136;-66
2023/08/22 03:43:12;;;;;;;3.97;2.20;;;25.30;86.00;;;;;;5049122;28;20044;-64
2023/08/22 03:45:38;;;;;;;4.82;2.55;;;25.10;85.80;;;;;;5062741;28;20074;-72
2023/08/22 03:48:04;;;;;;;6.20;2.60;;;25.10;85.70;;;;;;5039810;28;20140;-68
2023/08/22 03:50:30;;;;;;;4.15;2.30;;;25.20;85.30;;;;;;5048116;28;20055;-69
2023/08/22 03:52:56;;;;;;;4.68;2.10;;;24.90;85.50;;;;;;5037705;28;20394;-69
2023/08/22 03:55:22;;;;;;;3.92;2.42;;;25.10;85.80;;;;;;5070160;28;20040;-70
2023/08/22 03:57:48;;;;;;;5.82;3.00;;;25.10;85.60;;;;;;5053850;28;20048;-64
2023/08/22 04:00:14;;;;;;;5.97;2.70;;;24.70;85.50;;;;;;5053510;28;20045;-67
2023/08/22 04:02:40;;;;;;;4.38;2.50;;;25.10;85.50;;;;;;5063182;28;20048;-69
2023/08/22 04:05:06;;;;;;;3.75;2.30;;;25.10;85.70;;;;;;5061730;28;20102;-66
2023/08/22 04:07:31;;;;;;;4.43;2.38;;;24.90;89.20;;;;;;5072191;28;20091;-65
2023/08/22 04:09:57;;;;;;;3.95;2.10;;;25.10;85.80;;;;;;5073404;28;20502;-64
2023/08/22 04:12:23;;;;;;;5.20;2.60;;;25.10;85.90;;;;;;5050011;28;20402;-66
2023/08/22 04:14:49;;;;;;;4.93;2.65;;;25.30;86.10;;;;;;5067497;28;20398;-65
2023/08/22 04:17:15;;;;;;;4.47;2.40;;;25.20;86.00;;;;;;5052460;28;20071;-64
2023/08/22 04:19:41;;;;;;;5.78;2.65;;;25.00;85.70;;;;;;5062532;28;20411;-67
2023/08/22 04:22:07;;;;;;;4.95;2.60;;;25.00;85.70;;;;;;5063890;28;20049;-64
2023/08/22 04:24:33;;;;;;;4.85;2.45;;;25.20;85.90;;;;;;5046003;28;20424;-69
2023/08/22 04:26:59;;;;;;;5.50;2.55;;;24.90;85.70;;;;;;5070031;28;20028;-65
2023/08/22 04:29:24;;;;;;;4.50;2.30;;;25.10;85.70;;;;;;5040698;28;20506;-65
2023/08/22 04:31:50;;;;;;;6.05;2.55;;;25.00;85.80;;;;;;5038761;28;20510;-63
2023/08/22 04:34:16;;;;;;;4.97;2.33;;;25.20;89.10;;;;;;5040689;28;20046;-63
2023/08/22 04:36:42;;;;;;;5.50;2.60;;;24.90;85.50;;;;;;5041364;28;20049;-65
2023/08/22 04:39:07;;;;;;;6.05;2.58;;;24.90;85.70;;;;;;5053059;28;20046;-65
2023/08/22 04:41:33;;;;;;;5.53;2.83;;;25.20;85.90;;;;;;5052482;28;20052;-65
2023/08/22 04:43:59;;;;;;;3.60;2.00;;;24.90;85.60;;;;;;5052094;28;20401;-63
2023/08/22 04:46:24;;;;;;;4.72;2.50;;;25.00;85.90;;;;;;5047619;28;20050;-66
2023/08/22 04:48:50;;;;;;;4.28;2.53;;;25.20;86.00;;;;;;5055414;28;20056;-69
2023/08/22 04:51:16;;;;;;;5.32;2.50;;;25.20;86.00;;;;;;5040694;28;20057;-74
2023/08/22 04:53:45;;;;;;;6.35;2.50;;;25.10;85.90;;;;;;5040080;28;20441;-72
2023/08/22 04:56:12;;;;;;;5.53;2.38;;;25.00;86.00;;;;;;5049907;28;20060;-67
2023/08/22 04:58:37;;;;;;;4.95;2.30;;;24.90;86.00;;;;;;5047353;28;20045;-72
2023/08/22 05:01:03;;;;;;;4.20;2.40;;;24.90;85.80;;;;;;5049540;28;20103;-72
2023/08/22 05:03:29;;;;;;;4.22;2.28;;;24.90;85.90;;;;;;5052032;28;20497;-67
2023/08/22 05:05:55;;;;;;;3.92;2.33;;;24.80;85.70;;;;;;5050128;28;20124;-65
2023/08/22 05:08:21;;;;;;;4.88;2.50;;;24.80;85.60;;;;;;5045237;28;20186;-71
2023/08/22 05:10:46;;;;;;;7.13;4.38;;;25.40;86.10;;;;;;5055440;28;20041;-72
2023/08/22 05:13:12;;;;;;;9.18;6.47;;;25.00;85.50;;;;;;5060809;28;20520;-73
2023/08/22 05:15:38;;;;;;;12.60;7.03;;;25.10;85.10;;;;;;5019402;28;20479;-74
2023/08/22 05:18:04;;;;;;;9.60;6.93;;;25.00;84.80;;;;;;5038123;28;20045;-67
2023/08/22 05:20:30;;;;;;;11.50;7.18;;;25.10;84.60;;;;;;5023279;28;20045;-62
2023/08/22 05:22:55;;;;;;;11.52;7.40;;;24.80;84.60;;;;;;5027377;28;20040;-70
2023/08/22 05:25:21;;;;;;;9.63;7.70;;;25.20;84.80;;;;;;5045419;28;20080;-68
2023/08/22 05:27:47;;;;;;;10.27;7.22;;;25.10;84.80;;;;;;5045903;28;20114;-76
2023/08/22 05:30:13;;;;;;;9.82;7.18;;;25.00;84.80;;;;;;5039960;28;20110;-67
2023/08/22 05:32:40;;;;;;;10.02;7.80;;;24.90;84.60;;;;;;5044713;28;20099;-61
2023/08/22 05:35:06;;;;;;;10.73;7.95;;;24.70;84.70;;;;;;5048485;28;20073;-69
2023/08/22 05:37:32;;;;;;;10.27;7.18;;;24.60;84.00;;;;;;5051467;28;20057;-76
2023/08/22 05:39:58;;;;;;;10.00;6.80;;;24.60;84.40;;;;;;5048929;28;20410;-75
2023/08/22 05:42:23;;;;;;;10.73;6.80;;;24.70;84.70;;;;;;5049855;28;20056;-74
2023/08/22 05:44:49;;;;;;;11.32;7.20;;;24.60;84.80;;;;;;5025213;28;20505;-65
2023/08/22 05:47:15;;;;;;;9.98;7.20;;;24.50;84.90;;;;;;5046309;28;20041;-73
2023/08/22 05:49:43;;;;;;;11.23;8.50;;;24.60;84.90;;;;;;5046796;28;20117;-64
2023/08/22 05:52:09;;;;;;;10.98;8.15;;;24.60;85.20;;;;;;5046079;28;20064;-71
2023/08/22 05:54:35;;;;;;;12.73;8.52;;;24.80;85.30;;;;;;5046594;28;20049;-67
2023/08/22 05:57:01;;;;;;;11.05;8.90;;;24.60;85.30;;;;;;5050524;28;20041;-64
2023/08/22 05:59:26;;;;;;;10.52;8.57;;;24.60;85.40;;;;;;5049425;28;20536;-68
2023/08/22 06:01:52;;;;;;;11.65;9.48;;;24.40;88.40;;;;;;5045432;28;20088;-70
2023/08/22 06:04:18;;;;;;;13.13;8.90;;;24.60;85.50;;;;;;5044793;28;20037;-75
2023/08/22 06:06:44;;;;;;;12.27;9.07;;;24.40;85.50;;;;;;5050785;28;20057;-66
2023/08/22 06:09:11;;;;;;;11.57;8.68;;;24.40;85.50;;;;;;5030370;28;20564;-61
2023/08/22 06:11:37;;;;;;;12.20;8.88;;;24.50;85.80;;;;;;5048938;28;20175;-64
2023/08/22 06:14:04;;;;;;;13.68;8.98;;;24.50;85.60;;;;;;5046572;28;20116;-65
2023/08/22 06:16:30;;;;;;;13.55;8.18;;;24.60;85.70;;;;;;5044792;28;20044;-63
2023/08/22 06:18:56;;;;;;;11.68;7.75;;;24.60;85.60;;;;;;5048521;28;20064;-64
2023/08/22 06:21:21;;;;;;;10.10;7.65;;;24.80;85.70;;;;;;5050372;28;20140;-68
2023/08/22 06:23:48;;;;;;;13.25;7.95;;;24.30;85.40;;;;;;5051933;28;20178;-68
2023/08/22 06:26:15;;;;;;;13.05;7.93;;;24.50;85.20;;;;;;5046657;28;20131;-67
2023/08/22 06:28:41;;;;;;;10.63;7.15;;;24.80;85.50;;;;;;5050325;28;20049;-68
2023/08/22 06:31:07;;;;;;;12.13;7.85;;;24.80;85.40;;;;;;5050258;28;20047;-62
2023/08/22 06:33:33;;;;;;;10.00;6.68;;;24.80;85.40;;;;;;5049392;28;20049;-67
2023/08/22 06:35:59;;;;;;;13.20;7.00;;;25.10;85.40;;;;;;5033529;28;20392;-70
2023/08/22 06:38:25;;;;;;;13.73;7.20;;;25.10;85.20;;;;;;5050064;28;20041;-67
2023/08/22 06:40:51;;;;;;;9.98;6.70;;;24.80;85.10;;;;;;5033748;28;20049;-61
2023/08/22 06:43:16;;;;;;;9.43;6.10;;;25.00;85.10;;;;;;5052909;28;20497;-61
2023/08/22 06:45:42;;;;;;;10.48;6.25;;;24.90;85.00;;;;;;5051889;28;20148;-69
2023/08/22 06:48:08;;;;;;;13.55;7.00;;;25.10;85.20;;;;;;5044476;28;20049;-62
2023/08/22 06:50:34;;;;;;;9.48;6.10;;;25.30;85.40;;;;;;5031421;28;20045;-61
2023/08/22 06:53:00;;;;;;;10.55;5.97;;;25.30;85.00;;;;;;5050112;28;20049;-64
2023/08/22 06:55:26;;;;;;;10.82;6.25;;;25.30;84.80;;;;;;5035191;28;20640;-69
2023/08/22 06:57:52;;;;;;;13.13;6.95;;;25.40;84.50;;;;;;5049566;28;20041;-71
2023/08/22 07:00:18;;;;;;;11.35;6.30;;;25.70;84.40;;;;;;5050218;28;20044;-71
2023/08/22 07:02:45;;;;;;;9.88;6.22;;;25.80;83.90;;;;;;5048344;28;20045;-62
2023/08/22 07:05:12;;;;;;;11.30;6.50;;;25.60;84.20;;;;;;5049711;28;20090;-65
2023/08/22 07:07:38;;;;;;;11.30;7.25;;;25.70;84.30;;;;;;5050121;28;20045;-66
2023/08/22 07:10:05;;;;;;;10.07;6.30;;;26.00;84.30;;;;;;5049333;28;20483;-64
2023/08/22 07:12:31;;;;;;;12.77;6.05;;;25.50;83.90;;;;;;5050070;28;20041;-74
2023/08/22 07:14:57;;;;;;;10.98;6.13;;;25.30;83.80;;;;;;5052654;28;20045;-67
2023/08/22 07:17:22;;;;;;;9.07;5.70;;;25.50;84.00;;;;;;5051252;28;20120;-70
2023/08/22 07:19:48;;;;;;;9.63;5.90;;;25.70;84.10;;;;;;5051094;28;20109;-62
2023/08/22 07:22:14;;;;;;;11.80;6.40;;;25.60;83.80;;;;;;5052739;28;20682;-72
2023/08/22 07:24:40;;;;;;;12.38;6.55;;;25.50;84.00;;;;;;5050861;28;20119;-70
2023/08/22 07:27:07;;;;;;;10.73;5.85;;;25.80;84.10;;;;;;5042162;28;20116;-66
2023/08/22 07:29:33;;;;;;;11.35;5.38;;;25.70;84.50;;;;;;5052124;28;20411;-67
2023/08/22 07:31:59;;;;;;;8.93;5.50;;;25.80;84.30;;;;;;5045071;28;20037;-67
2023/08/22 07:34:25;;;;;;;12.00;5.68;;;25.90;84.50;;;;;;5053862;28;20061;-66
2023/08/22 07:36:52;;;;;;;11.75;5.55;;;25.90;84.20;;;;;;5066727;28;20049;-64
2023/08/22 07:39:18;;;;;;;9.88;5.45;;;25.80;84.10;;;;;;5049993;28;20040;-68
2023/08/22 07:41:44;;;;;;;9.80;5.35;;;25.90;84.20;;;;;;5059627;28;20036;-67
2023/08/22 07:44:10;;;;;;;10.95;5.20;;;25.80;83.80;;;;;;5062906;28;20399;-66
2023/08/22 07:46:35;;;;;;;11.27;5.30;;;26.00;83.70;;;;;;5067060;28;20491;-67
2023/08/22 07:49:01;;;;;;;10.98;5.38;;;26.10;83.80;;;;;;5044431;28;20044;-76
2023/08/22 07:51:27;;;;;;;11.15;5.55;;;26.00;83.90;;;;;;5052935;28;20048;-63
2023/08/22 07:53:53;;;;;;;15.07;4.75;;;25.90;83.50;;;;;;5063103;28;20052;-67
2023/08/22 07:56:19;;;;;;;8.75;3.72;;;25.80;83.30;;;;;;5051710;28;20490;-71
2023/08/22 07:58:45;;;;;;;10.00;4.38;;;26.10;83.10;;;;;;5041370;28;20068;-66
2023/08/22 08:01:11;;;;;;;8.48;3.90;;;25.90;82.70;;;;;;5069766;28;20056;-68
2023/08/22 08:03:36;;;;;;;12.60;4.55;;;25.90;82.40;;;;;;5045719;28;20045;-69
2023/08/22 08:06:02;;;;;;;8.80;4.25;;;26.00;82.30;;;;;;5069616;28;20142;-69
2023/08/22 08:08:28;;;;;;;9.52;4.20;;;25.90;82.10;;;;;;5031323;28;20040;-63
2023/08/22 08:10:54;;;;;;;7.72;4.32;;;26.00;82.30;;;;;;5058579;28;20137;-62
2023/08/22 08:13:20;;;;;;;10.68;5.88;;;26.00;82.00;;;;;;5051693;28;20044;-62
2023/08/22 08:15:46;;;;;;;10.50;4.82;;;26.10;81.90;;;;;;5072573;28;20040;-61
2023/08/22 08:18:11;;;;;;;8.05;3.90;;;26.20;81.50;;;;;;5037042;28;20439;-62
2023/08/22 08:20:37;;;;;;;9.00;3.90;;;26.20;81.50;;;;;;5049298;28;20455;-65
2023/08/22 08:23:03;;;;;;;8.05;3.63;;;26.10;81.40;;;;;;5049069;28;20052;-63
2023/08/22 08:25:30;;;;;;;8.77;3.70;;;26.10;81.10;;;;;;5054143;28;20394;-79
2023/08/22 08:27:57;;;;;;;8.48;3.97;;;26.20;81.10;;;;;;5051308;28;20052;-76
2023/08/22 08:30:22;;;;;;;9.18;3.70;;;26.00;81.00;;;;;;5053863;28;20489;-65
2023/08/22 08:32:48;;;;;;;7.88;3.50;;;26.20;80.60;;;;;;5071234;28;20036;-66
2023/08/22 08:35:14;;;;;;;6.47;3.50;;;26.50;80.70;;;;;;5064655;28;20056;-64
2023/08/22 08:37:40;;;;;;;7.18;3.70;;;26.40;80.00;;;;;;5067927;28;20678;-66
2023/08/22 08:40:09;;;;;;;6.45;3.40;;;26.60;80.00;;;;;;5068398;28;20498;-64
2023/08/22 08:42:38;;;;;;;7.82;3.35;;;26.50;78.50;;;;;;5055620;28;20219;-67
2023/08/22 08:45:05;;;;;;;6.63;2.90;;;26.60;79.80;;;;;;5074469;28;20127;-74
2023/08/22 08:47:32;;;;;;;7.90;3.65;;;26.60;79.10;;;;;;5022451;28;20502;-70
2023/08/22 08:49:59;;;;;;;8.75;3.25;;;26.60;79.40;;;;;;5073882;28;20475;-82
2023/08/22 08:52:25;;;;;;;5.45;3.05;;;26.70;79.20;;;;;;5053691;28;20177;-76
2023/08/22 08:54:51;;;;;;;4.57;2.63;;;26.90;78.80;;;;;;5070479;28;20049;-72
2023/08/22 08:57:17;;;;;;;6.05;2.95;;;26.90;78.20;;;;;;5072877;28;20056;-75
2023/08/22 08:59:43;;;;;;;11.13;3.00;;;26.80;77.90;;;;;;5055002;28;20470;-76
2023/08/22 09:02:11;;;;;;;11.52;3.10;;;26.90;77.60;;;;;;5066481;28;20048;-76
2023/08/22 09:04:38;;;;;;;11.40;3.00;;;27.20;77.60;;;;;;5061996;28;20046;-65
2023/08/22 09:07:03;;;;;;;6.65;2.70;;;26.90;76.80;;;;;;5050711;28;20048;-70
2023/08/22 09:09:34;;;;;;;8.27;2.70;;;27.20;77.20;;;;;;5045259;28;20056;-72
2023/08/22 09:12:04;;;;;;;5.40;2.78;;;27.10;77.30;;;;;;5062577;28;20041;-62
2023/08/22 09:14:30;;;;;;;8.07;2.80;;;27.10;75.70;;;;;;5049598;28;20124;-73
2023/08/22 09:17:03;;;;;;;7.75;2.80;;;27.40;77.00;;;;;;5034175;28;20061;-74
2023/08/22 09:19:33;;;;;;;8.57;3.72;;;27.50;75.60;;;;;;5047398;28;20058;-74
2023/08/22 09:21:59;;;;;;;8.52;3.10;;;27.60;77.00;;;;;;5056287;28;20041;-76
2023/08/22 09:24:25;;;;;;;7.10;2.67;;;27.50;76.70;;;;;;5044434;28;20376;-66
2023/08/22 09:26:51;;;;;;;7.55;3.03;;;27.50;76.50;;;;;;5063986;28;20359;-70
2023/08/22 09:29:25;;;;;;;5.30;2.50;;;27.40;76.60;;;;;;5067115;28;20462;-77
2023/08/22 09:31:54;;;;;;;8.18;2.95;;;27.40;76.70;;;;;;5058187;28;20040;-76
2023/08/22 09:34:20;;;;;;;6.07;2.75;;;27.30;76.30;;;;;;5034516;28;20571;-71
2023/08/22 09:36:46;;;;;;;7.13;2.80;;;27.40;75.80;;;;;;5044517;28;20052;-74
2023/08/22 09:39:13;;;;;;;7.03;3.00;;;27.50;75.90;;;;;;5060782;28;20045;-79
2023/08/22 09:41:39;;;;;;;5.05;2.67;;;27.10;75.70;;;;;;5030823;28;20052;-62
2023/08/22 09:44:05;;;;;;;5.90;2.70;;;27.10;75.30;;;;;;5041855;28;20419;-66
2023/08/22 09:46:31;;;;;;;5.32;2.85;;;27.20;75.50;;;;;;5053267;28;20040;-62
2023/08/22 09:48:57;;;;;;;4.40;2.40;;;26.80;75.10;;;;;;5051749;28;20071;-63
2023/08/22 09:51:23;;;;;;;5.38;2.75;;;26.90;75.20;;;;;;5032059;28;20059;-63
2023/08/22 09:53:50;;;;;;;5.22;2.30;;;26.70;75.10;;;;;;5045602;28;20075;-65
2023/08/22 09:56:17;;;;;;;6.70;2.70;;;26.80;75.50;;;;;;5035702;28;20127;-62
2023/08/22 09:58:43;;;;;;;8.27;2.83;;;27.10;75.30;;;;;;5029411;28;20051;-63
2023/08/22 10:01:10;;;;;;;5.03;2.47;;;27.00;75.00;;;;;;5051828;28;20044;-63
2023/08/22 10:03:36;;;;;;;7.45;2.35;;;27.20;75.20;;;;;;5041178;28;20386;-68
2023/08/22 10:06:02;;;;;;;6.57;2.53;;;27.10;74.70;;;;;;5035426;28;20049;-64
2023/08/22 10:08:29;;;;;;;13.43;3.40;;;27.10;74.50;;;;;;5052589;28;20052;-71
2023/08/22 10:10:56;;;;;;;10.77;2.92;;;27.20;74.50;;;;;;5061426;28;20059;-62
2023/08/22 10:13:22;;;;;;;8.57;2.70;;;27.30;74.40;;;;;;5045835;28;20655;-73
2023/08/22 10:15:48;;;;;;;4.97;2.55;;;27.10;74.00;;;;;;5050553;28;20040;-63
2023/08/22 10:18:14;;;;;;;5.97;2.90;;;27.50;74.20;;;;;;5070253;28;20040;-69
2023/08/22 10:20:40;;;;;;;6.25;2.50;;;27.50;74.30;;;;;;5066971;28;20040;-67
2023/08/22 10:23:08;;;;;;;6.20;2.47;;;27.10;74.30;;;;;;5068178;28;20044;-70
2023/08/22 10:25:48;;;;;;;5.07;2.45;;;27.40;74.40;;;;;;5069973;28;20170;-64
2023/08/22 10:28:14;;;;;;;5.65;2.72;;;27.40;74.60;;;;;;5067579;28;20064;-70
2023/08/22 10:31:02;;;;;;;5.90;2.83;;;27.40;74.30;;;;;;5068313;28;20050;-70
2023/08/22 10:33:28;;;;;;;5.40;2.30;;;27.40;73.00;;;;;;5048257;28;20084;-62
2023/08/22 10:36:05;;;;;;;5.07;2.45;;;27.30;74.20;;;;;;5047048;28;20410;-66
2023/08/22 10:38:54;;;;;;;7.28;2.58;;;27.50;75.10;;;;;;5037161;28;20044;-75
2023/08/22 10:41:45;;;;;;;4.65;2.40;;;27.40;73.00;;;;;;5041732;28;20056;-77
2023/08/22 10:44:26;;;;;;;6.13;2.50;;;27.60;73.10;;;;;;5031967;28;20045;-70
2023/08/22 10:47:02;;;;;;;5.80;2.58;;;27.60;74.20;;;;;;5034163;28;20045;-74
2023/08/22 10:49:32;;;;;;;5.47;2.40;;;27.50;72.40;;;;;;5065616;28;20109;-70
2023/08/22 10:52:16;;;;;;;5.07;2.20;;;27.50;72.00;;;;;;5051531;28;20682;-65
2023/08/22 10:55:00;;;;;;;5.70;2.28;;;27.30;72.90;;;;;;5024224;28;20044;-76
2023/08/22 10:57:33;;;;;;;5.28;2.10;;;27.30;72.10;;;;;;5049726;28;20045;-72
2023/08/22 10:59:58;;;;;;;4.90;2.03;;;27.40;71.50;;;;;;5066078;28;20044;-60
2023/08/22 11:02:32;;;;;;;7.18;2.13;;;27.20;72.40;;;;;;5070133;28;20371;-62
2023/08/22 11:05:01;;;;;;;4.25;2.08;;;27.40;72.70;;;;;;5033130;28;20158;-69
2023/08/22 11:07:28;;;;;;;4.15;2.05;;;27.50;71.10;;;;;;5052354;28;20127;-65
2023/08/22 11:09:54;;;;;;;4.70;2.15;;;27.20;72.00;;;;;;5055061;28;20040;-69
2023/08/22 11:12:23;;;;;;;3.92;2.00;;;27.30;71.90;;;;;;5056018;28;20389;-60
2023/08/22 11:14:50;;;;;;;6.00;2.00;;;27.50;72.20;;;;;;5067425;28;20130;-76
2023/08/22 11:17:16;;;;;;;4.10;2.03;;;27.60;72.20;;;;;;5047869;28;20068;-65
2023/08/22 11:19:42;;;;;;;6.57;2.13;;;27.70;72.40;;;;;;5067490;28;20079;-62
2023/08/22 11:22:08;;;;;;;4.80;1.88;;;27.70;72.00;;;;;;5052183;28;20320;-63
2023/08/22 11:24:34;;;;;;;4.10;1.98;;;27.40;72.30;;;;;;5056625;28;20043;-67
2023/08/22 11:27:03;;;;;;;4.47;1.90;;;27.50;72.30;;;;;;5053760;28;20489;-60
2023/08/22 11:29:51;;;;;;;5.10;1.70;;;27.60;72.30;;;;;;5074597;28;20193;-64
2023/08/22 11:32:27;;;;;;;5.13;2.10;;;27.60;73.30;;;;;;5074899;28;20182;-67
2023/08/22 11:34:55;;;;;;;4.15;1.90;;;27.40;73.50;;;;;;5054034;28;20056;-66
2023/08/22 11:37:21;;;;;;;6.38;2.10;;;27.60;73.50;;;;;;5051909;28;20111;-64
2023/08/22 11:39:50;;;;;;;4.50;1.88;;;27.40;73.30;;;;;;5052523;28;20080;-67
2023/08/22 11:42:16;;;;;;;3.53;1.95;;;27.80;72.70;;;;;;5035356;28;20052;-67
2023/08/22 11:45:03;;;;;;;5.82;2.13;;;27.70;74.40;;;;;;5050791;28;20045;-65
2023/08/22 11:47:56;;;;;;;4.63;1.88;;;27.70;73.40;;;;;;5034629;28;20052;-64
2023/08/22 11:50:27;;;;;;;2.83;1.55;;;27.50;74.80;;;;;;5047534;28;20056;-68
2023/08/22 11:52:54;;;;;;;4.80;2.00;;;27.60;74.90;;;;;;5053107;28;20039;-64
2023/08/22 11:55:27;;;;;;;3.78;1.80;;;27.70;75.00;;;;;;5033798;28;20059;-68
2023/08/22 11:58:00;;;;;;;3.55;1.60;;;27.50;73.50;;;;;;5047741;28;20060;-64
2023/08/22 12:00:27;;;;;;;3.42;1.80;;;27.70;75.20;;;;;;5044990;28;20535;-67
2023/08/22 12:02:54;;;;;;;3.25;1.70;;;27.50;75.00;;;;;;5051521;28;20442;-64
2023/08/22 12:05:53;;;;;;;3.83;1.70;;;28.00;75.60;;;;;;5051952;28;20608;-64
2023/08/22 12:08:19;;;;;;;5.13;1.83;;;27.60;75.50;;;;;;5035248;28;20057;-67
2023/08/22 12:10:49;;;;;;;3.83;1.80;;;27.60;75.40;;;;;;5040788;28;20673;-63
2023/08/22 12:13:21;;;;;;;3.53;1.75;;;27.80;75.50;;;;;;5040118;28;20069;-64
2023/08/22 12:15:47;;;;;;;3.88;1.90;;;27.90;75.90;;;;;;5044473;28;20048;-67
2023/08/22 12:18:13;;;;;;;3.53;1.92;;;27.80;75.60;;;;;;5048553;28;20141;-64
2023/08/22 12:20:42;;;;;;;4.70;2.05;;;27.70;75.50;;;;;;5047774;28;20076;-68
2023/08/22 12:23:09;;;;;;;3.75;2.03;;;27.70;75.90;;;;;;5047072;28;20037;-65
2023/08/22 12:25:36;;;;;;;3.72;1.60;;;27.70;76.40;;;;;;5044801;28;20057;-67
2023/08/22 12:28:05;;;;;;;5.28;2.30;;;28.00;76.10;;;;;;5031688;28;20077;-69
2023/08/22 12:30:33;;;;;;;4.95;2.00;;;27.80;74.90;;;;;;5043144;28;20095;-63
2023/08/22 12:33:00;;;;;;;6.75;2.00;;;28.00;76.00;;;;;;5047602;28;20040;-64
2023/08/22 12:35:26;;;;;;;4.32;1.73;;;27.90;75.90;;;;;;5036962;28;20059;-63
2023/08/22 12:37:52;;;;;;;7.00;2.33;;;28.10;75.90;;;;;;5028157;28;20419;-63
2023/08/22 12:40:18;;;;;;;4.68;2.10;;;27.80;75.60;;;;;;4968913;28;20083;-63
2023/08/22 12:42:45;;;;;;;4.88;1.70;;;27.90;75.70;;;;;;5016690;28;20042;-63
2023/08/22 12:45:11;;;;;;;7.22;2.30;;;27.90;75.80;;;;;;5007731;28;20052;-63